Oxnard, California
Current Conditions -  °F | °C
As of 4:51 PM on Monday 26 Jan 2015 (Local Time) from KOXR Reporting Station
Light Rain Light Rain  
Wind Chill: 67°   Ceiling: 9500
Heat Index: 67°   Visibility: 10mi
Dew Point: 47°   Wind: 10mph
Humidity: 49%   Direction: 140°SE
Pressure: 30.02"   Gusts: NA
Location:  34.2°N, 119.18°W
Report Text: KOXR 270051Z 14009KT 10SM -RA OVC095 19/08 A3002 RMK AO2 RAB36 SLP164 P0000 T01940083
Loading
Personal Weather Stations






























Interactive Weather Map New forecast layout! Learn more

10-Day Weather Forecast

Advertisements
Track Severe Weather on mobile